Time;durP1;ratioP1;P1;durP2;ratioP2;P2;SDS_P1;SDS_P2;PMS_P1;PMS_P2;Temp;Humidity;BMP_temperature;BMP_pressure;BME280_temperature;BME280_humidity;BME280_pressure;Samples;Min_cycle;Max_cycle;Signal;HPM_P1;HPM_P2
2022/12/19 00:00:40;0.00;0.00;0.62;0.00;0.00;0.62;2.80;1.73;;;19.50;20.80;;;;;;2267980;61;20367;-63
2022/12/19 00:03:24;0.00;0.00;0.62;0.00;0.00;0.62;2.60;1.93;;;19.50;20.80;;;;;;2268491;61;20434;-65
2022/12/19 00:06:09;0.00;0.00;0.62;0.00;0.00;0.62;2.30;1.50;;;19.50;20.80;;;;;;2265163;61;20359;-67
2022/12/19 00:08:55;0.00;0.00;0.62;0.00;0.00;0.62;1.97;1.57;;;19.50;20.80;;;;;;2264404;61;20363;-63
2022/12/19 00:11:40;0.00;0.00;0.62;0.00;0.00;0.62;2.90;1.93;;;19.50;20.80;;;;;;2268571;61;20339;-64
2022/12/19 00:14:26;0.00;0.00;0.62;0.00;0.00;0.62;2.73;2.10;;;19.50;20.80;;;;;;2268308;61;20391;-64
2022/12/19 00:17:11;0.00;0.00;0.62;0.00;0.00;0.62;2.37;1.70;;;19.50;20.80;;;;;;2267847;61;20935;-64
2022/12/19 00:19:56;0.00;0.00;0.62;0.00;0.00;0.62;3.03;2.37;;;19.50;20.80;;;;;;2268711;61;20437;-64
2022/12/19 00:22:41;0.00;0.00;0.62;0.00;0.00;0.62;1.80;1.50;;;19.50;20.80;;;;;;2267184;61;20421;-64
2022/12/19 00:25:26;0.00;0.00;0.62;0.00;0.00;0.62;2.83;1.97;;;19.50;20.80;;;;;;2268199;61;20406;-67
2022/12/19 00:28:11;0.00;0.00;0.62;0.00;0.00;0.62;3.57;2.40;;;19.60;20.80;;;;;;2268489;61;20791;-64
2022/12/19 00:30:59;0.00;0.00;0.62;0.00;0.00;0.62;2.87;1.90;;;19.60;20.80;;;;;;2264263;61;20363;-63
2022/12/19 00:33:44;0.00;0.00;0.62;0.00;0.00;0.62;2.70;1.90;;;19.50;20.80;;;;;;2268277;61;20387;-68
2022/12/19 00:36:33;0.00;0.00;0.62;0.00;0.00;0.62;2.50;1.70;;;19.60;20.90;;;;;;2265071;61;20406;-65
2022/12/19 00:39:18;0.00;0.00;0.62;0.00;0.00;0.62;1.93;1.50;;;19.60;20.90;;;;;;2267597;61;20759;-63
2022/12/19 00:42:03;0.00;0.00;0.62;0.00;0.00;0.62;2.40;1.87;;;19.60;20.90;;;;;;2268342;61;20358;-63
2022/12/19 00:44:48;0.00;0.00;0.62;0.00;0.00;0.62;2.33;1.93;;;19.60;20.90;;;;;;2264823;61;20397;-66
2022/12/19 00:47:34;0.00;0.00;0.62;0.00;0.00;0.62;3.23;2.03;;;19.60;20.90;;;;;;2268108;61;20363;-62
2022/12/19 00:50:19;0.00;0.00;0.62;0.00;0.00;0.62;3.33;2.30;;;19.60;20.90;;;;;;2268270;61;20902;-66
2022/12/19 00:53:03;0.00;0.00;0.62;0.00;0.00;0.62;3.37;1.93;;;19.60;20.90;;;;;;2267266;61;20394;-64
2022/12/19 00:55:48;0.00;0.00;0.62;0.00;0.00;0.62;2.63;1.90;;;19.60;20.90;;;;;;2268392;61;20945;-64
2022/12/19 00:58:33;0.00;0.00;0.62;0.00;0.00;0.62;2.63;1.87;;;19.60;20.90;;;;;;2268438;61;20417;-64
2022/12/19 01:01:20;0.00;0.00;0.62;0.00;0.00;0.62;2.97;2.20;;;19.60;20.80;;;;;;2267538;61;20899;-65
2022/12/19 01:04:12;0.00;0.00;0.62;0.00;0.00;0.62;2.90;2.10;;;19.60;20.80;;;;;;2268291;61;20415;-63
2022/12/19 01:07:00;0.00;0.00;0.62;0.00;0.00;0.62;2.73;2.13;;;19.60;20.80;;;;;;2264734;61;20401;-67
2022/12/19 01:09:45;0.00;0.00;0.62;0.00;0.00;0.62;3.27;2.20;;;19.60;20.80;;;;;;2268064;61;20362;-67
2022/12/19 01:12:45;0.00;0.00;0.62;0.00;0.00;0.62;2.50;1.87;;;19.60;20.80;;;;;;2265130;61;20358;-66
2022/12/19 01:15:29;0.00;0.00;0.62;0.00;0.00;0.62;3.10;2.00;;;19.60;20.80;;;;;;2267307;61;20776;-66
2022/12/19 01:18:14;0.00;0.00;0.62;0.00;0.00;0.62;3.80;2.30;;;19.60;20.80;;;;;;2265202;61;20343;-65
2022/12/19 01:21:03;0.00;0.00;0.62;0.00;0.00;0.62;3.40;2.20;;;19.60;20.80;;;;;;2265088;61;20355;-65
2022/12/19 01:23:48;0.00;0.00;0.62;0.00;0.00;0.62;3.23;2.00;;;19.60;20.80;;;;;;2267610;61;20429;-66
2022/12/19 01:26:32;0.00;0.00;0.62;0.00;0.00;0.62;2.87;2.57;;;19.60;20.90;;;;;;2265050;61;20382;-66
2022/12/19 01:29:17;0.00;0.00;0.62;0.00;0.00;0.62;2.20;1.70;;;19.60;20.80;;;;;;2264526;61;20440;-63
2022/12/19 01:32:01;0.00;0.00;0.62;0.00;0.00;0.62;2.17;1.63;;;19.60;20.90;;;;;;2267792;61;20406;-64
2022/12/19 01:34:49;0.00;0.00;0.62;0.00;0.00;0.62;2.20;1.70;;;19.60;20.90;;;;;;2265778;61;20459;-66
2022/12/19 01:37:35;0.00;0.00;0.62;0.00;0.00;0.62;2.53;2.00;;;19.60;20.80;;;;;;2268036;61;20862;-63
2022/12/19 01:40:21;0.00;0.00;0.62;0.00;0.00;0.62;2.60;2.23;;;19.60;20.80;;;;;;2268967;61;20367;-64
2022/12/19 01:43:12;0.00;0.00;0.62;0.00;0.00;0.62;2.60;1.77;;;19.60;20.90;;;;;;2269057;61;20764;-65
2022/12/19 01:46:01;0.00;0.00;0.62;0.00;0.00;0.62;3.00;2.40;;;19.60;20.90;;;;;;2268202;61;20483;-66
2022/12/19 01:48:46;0.00;0.00;0.62;0.00;0.00;0.62;2.77;1.90;;;19.60;20.80;;;;;;2265786;61;20351;-68
2022/12/19 01:51:38;0.00;0.00;0.62;0.00;0.00;0.62;2.60;1.90;;;19.60;20.80;;;;;;2268443;61;20425;-63
2022/12/19 01:54:28;0.00;0.00;0.62;0.00;0.00;0.62;3.10;2.17;;;19.60;20.80;;;;;;2268768;61;20383;-64
2022/12/19 01:57:17;0.00;0.00;0.62;0.00;0.00;0.62;2.90;2.20;;;19.60;20.80;;;;;;2269091;61;20359;-65
2022/12/19 02:00:03;0.00;0.00;0.62;0.00;0.00;0.62;2.53;1.87;;;19.60;20.80;;;;;;2264628;61;20507;-65
2022/12/19 02:03:03;0.00;0.00;0.62;0.00;0.00;0.62;2.93;2.00;;;19.60;20.80;;;;;;2268974;61;20355;-66
2022/12/19 02:05:49;0.00;0.00;0.62;0.00;0.00;0.62;3.07;2.23;;;19.60;20.90;;;;;;2268522;61;20890;-66
2022/12/19 02:08:35;0.00;0.00;0.62;0.00;0.00;0.62;2.50;2.03;;;19.60;21.00;;;;;;2265013;61;20445;-68
2022/12/19 02:11:21;0.00;0.00;0.62;0.00;0.00;0.62;2.20;1.80;;;19.60;21.10;;;;;;2268907;61;20430;-66
2022/12/19 02:14:06;0.00;0.00;0.62;0.00;0.00;0.62;3.90;2.30;;;19.60;21.00;;;;;;2264772;61;20426;-66
2022/12/19 02:16:59;0.00;0.00;0.62;0.00;0.00;0.62;2.93;2.17;;;19.60;21.00;;;;;;2265428;61;20425;-66
2022/12/19 02:20:46;0.00;0.00;0.62;0.00;0.00;0.62;2.70;1.97;;;19.60;21.00;;;;;;2265404;61;20891;-68
2022/12/19 02:24:17;0.00;0.00;0.62;0.00;0.00;0.62;2.90;2.10;;;19.60;21.20;;;;;;2268244;61;20874;-66
2022/12/19 02:27:52;0.00;0.00;0.62;0.00;0.00;0.62;3.17;1.80;;;19.60;21.20;;;;;;2268154;61;20374;-68
2022/12/19 02:30:56;0.00;0.00;0.62;0.00;0.00;0.62;2.50;1.77;;;19.60;21.20;;;;;;2264826;61;20407;-67
2022/12/19 02:33:51;0.00;0.00;0.62;0.00;0.00;0.62;2.93;2.10;;;19.60;21.10;;;;;;2265278;61;20430;-66
2022/12/19 02:36:40;0.00;0.00;0.62;0.00;0.00;0.62;3.30;2.20;;;19.60;21.40;;;;;;2267552;61;20492;-66
2022/12/19 02:39:29;0.00;0.00;0.62;0.00;0.00;0.62;2.50;1.90;;;19.60;21.10;;;;;;2265519;61;20356;-68
2022/12/19 02:42:21;0.00;0.00;0.62;0.00;0.00;0.62;4.80;2.13;;;19.60;21.00;;;;;;2268044;61;20359;-68
2022/12/19 02:45:11;0.00;0.00;0.62;0.00;0.00;0.62;2.07;1.47;;;19.60;21.00;;;;;;2267662;61;20482;-68
2022/12/19 02:48:01;0.00;0.00;0.62;0.00;0.00;0.62;3.10;2.00;;;19.60;21.00;;;;;;2268335;61;20363;-66
2022/12/19 02:50:47;0.00;0.00;0.62;0.00;0.00;0.62;2.83;2.17;;;19.60;21.00;;;;;;2264680;61;20410;-67
2022/12/19 02:53:34;0.00;0.00;0.62;0.00;0.00;0.62;2.10;1.50;;;19.60;21.00;;;;;;2265124;61;20394;-68
2022/12/19 02:56:44;0.00;0.00;0.62;0.00;0.00;0.62;2.50;2.00;;;19.60;21.00;;;;;;2265443;61;20417;-67
2022/12/19 02:59:49;0.00;0.00;0.62;0.00;0.00;0.62;2.63;1.63;;;19.60;21.00;;;;;;2267201;61;20391;-66
2022/12/19 03:02:45;0.00;0.00;0.62;0.00;0.00;0.62;2.93;1.87;;;19.60;21.00;;;;;;2265255;61;20351;-66
2022/12/19 03:05:44;0.00;0.00;0.62;0.00;0.00;0.62;2.07;1.50;;;19.60;20.90;;;;;;2264919;61;20432;-65
2022/12/19 03:08:41;0.00;0.00;0.62;0.00;0.00;0.62;3.00;2.00;;;19.60;21.00;;;;;;2268123;61;20835;-67
2022/12/19 03:11:31;0.00;0.00;0.62;0.00;0.00;0.62;2.40;1.80;;;19.60;21.10;;;;;;2265310;61;20788;-68
2022/12/19 03:14:19;0.00;0.00;0.62;0.00;0.00;0.62;1.90;1.40;;;19.60;20.90;;;;;;2264421;61;20378;-67
2022/12/19 03:17:06;0.00;0.00;0.62;0.00;0.00;0.62;2.50;1.80;;;19.60;20.90;;;;;;2265274;61;20406;-66
2022/12/19 03:19:51;0.00;0.00;0.62;0.00;0.00;0.62;2.50;2.00;;;19.60;20.90;;;;;;2264999;61;20379;-67
2022/12/19 03:22:37;0.00;0.00;0.62;0.00;0.00;0.62;3.90;2.40;;;19.70;21.00;;;;;;2267782;61;20386;-66
2022/12/19 03:25:23;0.00;0.00;0.62;0.00;0.00;0.62;2.53;2.10;;;19.60;20.90;;;;;;2268625;61;20398;-68
2022/12/19 03:28:14;0.00;0.00;0.62;0.00;0.00;0.62;2.20;1.50;;;19.60;20.90;;;;;;2267633;61;20845;-65
2022/12/19 03:31:00;0.00;0.00;0.62;0.00;0.00;0.62;2.03;1.83;;;19.60;20.90;;;;;;2268308;61;20886;-67
2022/12/19 03:33:48;0.00;0.00;0.62;0.00;0.00;0.62;2.70;1.90;;;19.60;20.90;;;;;;2268648;61;20386;-66
2022/12/19 03:36:41;0.00;0.00;0.62;0.00;0.00;0.62;2.90;1.70;;;19.70;21.00;;;;;;2267143;61;20915;-66
2022/12/19 03:39:29;0.00;0.00;0.62;0.00;0.00;0.62;3.10;2.07;;;19.60;20.90;;;;;;2268673;61;20399;-66
2022/12/19 03:45:28;0.00;0.00;0.62;0.00;0.00;0.62;3.20;2.17;;;19.70;21.00;;;;;;2268248;61;20490;-65
2022/12/19 03:48:18;0.00;0.00;0.62;0.00;0.00;0.62;2.77;2.30;;;19.60;20.90;;;;;;2268499;61;20398;-67
2022/12/19 03:51:15;0.00;0.00;0.62;0.00;0.00;0.62;2.30;1.83;;;19.70;21.00;;;;;;2267223;61;20356;-66
2022/12/19 03:54:05;0.00;0.00;0.62;0.00;0.00;0.62;1.80;1.50;;;19.60;21.00;;;;;;2268312;61;20383;-66
2022/12/19 03:56:59;0.00;0.00;0.62;0.00;0.00;0.62;2.80;1.97;;;19.70;21.00;;;;;;2267930;61;20379;-66
2022/12/19 03:59:50;0.00;0.00;0.62;0.00;0.00;0.62;2.80;1.80;;;19.70;21.00;;;;;;2267618;61;20441;-67
2022/12/19 04:02:38;0.00;0.00;0.62;0.00;0.00;0.62;1.80;1.43;;;19.70;21.00;;;;;;2268635;61;20788;-65
2022/12/19 04:05:26;0.00;0.00;0.62;0.00;0.00;0.62;2.30;2.00;;;19.60;20.90;;;;;;2267152;61;20425;-68
2022/12/19 04:08:11;0.00;0.00;0.62;0.00;0.00;0.62;2.30;1.60;;;19.60;20.90;;;;;;2265390;61;20403;-67
2022/12/19 04:11:02;0.00;0.00;0.62;0.00;0.00;0.62;2.20;1.57;;;19.60;20.90;;;;;;2268329;61;20367;-66
2022/12/19 04:13:52;0.00;0.00;0.62;0.00;0.00;0.62;2.47;1.80;;;19.60;21.00;;;;;;2267457;61;20505;-68
2022/12/19 04:16:44;0.00;0.00;0.62;0.00;0.00;0.62;2.80;1.83;;;19.60;20.90;;;;;;2268478;61;20424;-67
2022/12/19 04:19:34;0.00;0.00;0.62;0.00;0.00;0.62;2.40;1.60;;;19.60;20.90;;;;;;2267750;61;20627;-65
2022/12/19 04:22:24;0.00;0.00;0.62;0.00;0.00;0.62;3.53;2.13;;;19.70;21.00;;;;;;2268017;61;20405;-67
2022/12/19 04:25:13;0.00;0.00;0.62;0.00;0.00;0.62;2.03;1.70;;;19.60;21.00;;;;;;2265201;61;20945;-65
2022/12/19 04:28:08;0.00;0.00;0.62;0.00;0.00;0.62;2.10;1.43;;;19.60;20.90;;;;;;2267289;61;20363;-67
2022/12/19 04:30:54;0.00;0.00;0.62;0.00;0.00;0.62;2.67;1.80;;;19.60;20.90;;;;;;2268417;61;20383;-67
2022/12/19 04:33:38;0.00;0.00;0.62;0.00;0.00;0.62;2.77;2.17;;;19.60;20.90;;;;;;2267716;61;20524;-65
2022/12/19 04:36:25;0.00;0.00;0.62;0.00;0.00;0.62;3.60;2.20;;;19.60;21.00;;;;;;2267528;61;20382;-67
2022/12/19 04:39:10;0.00;0.00;0.62;0.00;0.00;0.62;3.00;1.87;;;19.60;21.00;;;;;;2268208;61;20837;-68
2022/12/19 04:41:54;0.00;0.00;0.62;0.00;0.00;0.62;2.43;1.93;;;19.60;20.90;;;;;;2267714;61;20387;-66
2022/12/19 04:44:39;0.00;0.00;0.62;0.00;0.00;0.62;2.10;1.63;;;19.70;21.00;;;;;;2268400;61;20395;-66
2022/12/19 04:47:25;0.00;0.00;0.62;0.00;0.00;0.62;2.10;1.60;;;19.60;20.90;;;;;;2268133;61;20386;-66
2022/12/19 04:50:10;0.00;0.00;0.62;0.00;0.00;0.62;2.53;1.83;;;19.60;20.90;;;;;;2267283;61;20410;-66
2022/12/19 04:52:54;0.00;0.00;0.62;0.00;0.00;0.62;2.23;1.73;;;19.70;21.00;;;;;;2268113;61;20362;-65
2022/12/19 04:55:40;0.00;0.00;0.62;0.00;0.00;0.62;2.73;1.93;;;19.60;20.90;;;;;;2267916;61;20378;-66
2022/12/19 04:58:24;0.00;0.00;0.62;0.00;0.00;0.62;2.10;1.40;;;19.60;20.90;;;;;;2267615;61;20354;-67
2022/12/19 05:01:09;0.00;0.00;0.62;0.00;0.00;0.62;2.40;1.70;;;19.70;21.00;;;;;;2268138;61;20494;-67
2022/12/19 05:03:55;0.00;0.00;0.62;0.00;0.00;0.62;3.17;2.40;;;19.70;21.00;;;;;;2267446;61;20418;-66
2022/12/19 05:06:39;0.00;0.00;0.62;0.00;0.00;0.62;2.80;2.30;;;19.60;20.90;;;;;;2268087;61;20821;-65
2022/12/19 05:09:24;0.00;0.00;0.62;0.00;0.00;0.62;2.73;1.97;;;19.70;21.00;;;;;;2268871;61;20355;-67
2022/12/19 05:12:09;0.00;0.00;0.62;0.00;0.00;0.62;2.63;2.03;;;19.60;20.90;;;;;;2267659;61;20402;-66
2022/12/19 05:14:53;0.00;0.00;0.62;0.00;0.00;0.62;2.20;1.90;;;19.70;21.00;;;;;;2268792;61;20382;-66
2022/12/19 05:17:38;0.00;0.00;0.62;0.00;0.00;0.62;2.30;1.60;;;19.70;21.00;;;;;;2269062;61;20359;-67
2022/12/19 05:20:24;0.00;0.00;0.62;0.00;0.00;0.62;2.97;1.60;;;19.70;21.00;;;;;;2268059;61;20378;-65
2022/12/19 05:23:08;0.00;0.00;0.62;0.00;0.00;0.62;2.70;2.13;;;19.60;20.90;;;;;;2268609;61;20410;-65
2022/12/19 05:25:56;0.00;0.00;0.62;0.00;0.00;0.62;3.37;2.20;;;19.70;21.00;;;;;;2268732;61;20413;-66
2022/12/19 05:28:41;0.00;0.00;0.62;0.00;0.00;0.62;2.40;1.80;;;19.60;20.90;;;;;;2268546;61;20355;-65
2022/12/19 05:31:26;0.00;0.00;0.62;0.00;0.00;0.62;2.80;2.40;;;19.70;20.90;;;;;;2268889;61;20363;-66
2022/12/19 05:34:10;0.00;0.00;0.62;0.00;0.00;0.62;3.13;2.50;;;19.70;20.90;;;;;;2267715;61;20379;-66
2022/12/19 05:36:57;0.00;0.00;0.62;0.00;0.00;0.62;2.70;2.20;;;19.70;20.90;;;;;;2268880;61;20389;-65
2022/12/19 05:39:42;0.00;0.00;0.62;0.00;0.00;0.62;3.70;2.07;;;19.60;20.80;;;;;;2268836;61;20363;-66
2022/12/19 05:42:27;0.00;0.00;0.62;0.00;0.00;0.62;2.70;1.97;;;19.60;20.80;;;;;;2267844;61;20363;-65
2022/12/19 05:45:12;0.00;0.00;0.62;0.00;0.00;0.62;2.40;2.00;;;19.70;20.90;;;;;;2268815;61;20391;-65
2022/12/19 05:47:56;0.00;0.00;0.62;0.00;0.00;0.62;2.23;1.70;;;19.60;20.80;;;;;;2268633;61;20913;-65
2022/12/19 05:50:45;0.00;0.00;0.62;0.00;0.00;0.62;3.00;2.07;;;19.70;20.90;;;;;;2268426;61;20355;-68
2022/12/19 05:53:33;0.00;0.00;0.62;0.00;0.00;0.62;2.50;2.03;;;19.60;20.90;;;;;;2268763;61;20379;-67
2022/12/19 05:56:21;0.00;0.00;0.62;0.00;0.00;0.62;2.67;1.90;;;19.60;20.80;;;;;;2267799;61;20372;-67
2022/12/19 05:59:06;0.00;0.00;0.62;0.00;0.00;0.62;3.27;2.43;;;19.60;20.80;;;;;;2268781;61;20399;-67
2022/12/19 06:01:52;0.00;0.00;0.62;0.00;0.00;0.62;2.70;2.20;;;19.60;20.80;;;;;;2268705;61;20383;-67
2022/12/19 06:04:36;0.00;0.00;0.62;0.00;0.00;0.62;2.57;1.97;;;19.60;20.80;;;;;;2267754;61;20839;-66
2022/12/19 06:07:21;0.00;0.00;0.62;0.00;0.00;0.62;2.63;1.87;;;19.60;20.80;;;;;;2268707;61;20467;-67
2022/12/19 06:10:07;0.00;0.00;0.62;0.00;0.00;0.62;2.60;1.90;;;19.60;20.80;;;;;;2268623;61;20359;-67
2022/12/19 06:12:52;0.00;0.00;0.62;0.00;0.00;0.62;3.00;2.20;;;19.60;20.90;;;;;;2268025;61;20405;-66
2022/12/19 06:15:37;0.00;0.00;0.62;0.00;0.00;0.62;2.70;2.30;;;19.60;20.90;;;;;;2268835;61;20387;-66
2022/12/19 06:18:22;0.00;0.00;0.62;0.00;0.00;0.62;2.57;2.00;;;19.60;20.90;;;;;;2267939;61;20377;-66
2022/12/19 06:21:10;0.00;0.00;0.62;0.00;0.00;0.62;2.57;1.97;;;19.60;20.90;;;;;;2268640;61;20354;-66
2022/12/19 06:23:55;0.00;0.00;0.62;0.00;0.00;0.62;3.13;2.10;;;19.60;20.90;;;;;;2268690;61;20754;-66
2022/12/19 06:26:41;0.00;0.00;0.62;0.00;0.00;0.62;2.40;1.90;;;19.60;20.90;;;;;;2267568;61;20378;-65
2022/12/19 06:29:26;0.00;0.00;0.62;0.00;0.00;0.62;2.77;2.00;;;19.60;20.90;;;;;;2265256;61;20364;-67
2022/12/19 06:32:11;0.00;0.00;0.62;0.00;0.00;0.62;2.63;1.90;;;19.60;20.90;;;;;;2268350;61;20358;-67
2022/12/19 06:34:55;0.00;0.00;0.62;0.00;0.00;0.62;2.10;1.60;;;19.60;20.90;;;;;;2267640;61;20425;-66
2022/12/19 06:37:40;0.00;0.00;0.62;0.00;0.00;0.62;2.87;2.30;;;19.60;20.90;;;;;;2268642;61;20364;-67
2022/12/19 06:43:30;0.00;0.00;0.62;0.00;0.00;0.62;2.90;2.30;;;19.60;20.90;;;;;;2268801;61;20390;-65
2022/12/19 06:46:14;0.00;0.00;0.62;0.00;0.00;0.62;1.90;1.53;;;19.60;20.90;;;;;;2268531;61;20343;-65
2022/12/19 06:48:59;0.00;0.00;0.62;0.00;0.00;0.62;2.97;2.10;;;19.60;20.90;;;;;;2267623;61;20375;-67
2022/12/19 06:51:45;0.00;0.00;0.62;0.00;0.00;0.62;3.30;2.70;;;19.60;21.50;;;;;;2268662;61;20363;-66
2022/12/19 06:54:30;0.00;0.00;0.62;0.00;0.00;0.62;3.60;2.50;;;19.60;20.90;;;;;;2268178;61;20427;-66
2022/12/19 06:57:14;0.00;0.00;0.62;0.00;0.00;0.62;3.07;2.30;;;19.60;20.90;;;;;;2268086;61;20529;-68
2022/12/19 07:00:01;0.00;0.00;0.62;0.00;0.00;0.62;2.77;2.10;;;19.60;20.90;;;;;;2268657;61;20820;-66
2022/12/19 07:02:49;0.00;0.00;0.62;0.00;0.00;0.62;2.30;1.80;;;19.60;20.90;;;;;;2267264;61;20363;-65
2022/12/19 07:05:34;0.00;0.00;0.62;0.00;0.00;0.62;2.50;2.07;;;19.60;20.90;;;;;;2268743;61;20898;-65
2022/12/19 07:08:19;0.00;0.00;0.62;0.00;0.00;0.62;2.40;1.80;;;19.60;20.90;;;;;;2268512;61;20386;-66
2022/12/19 07:11:04;0.00;0.00;0.62;0.00;0.00;0.62;2.50;1.90;;;19.60;21.00;;;;;;2267575;61;20866;-66
2022/12/19 07:13:49;0.00;0.00;0.62;0.00;0.00;0.62;2.40;1.67;;;19.60;21.00;;;;;;2265286;61;20819;-67
2022/12/19 07:16:34;0.00;0.00;0.62;0.00;0.00;0.62;3.13;2.43;;;19.60;20.90;;;;;;2268216;61;20389;-67
2022/12/19 07:19:20;0.00;0.00;0.62;0.00;0.00;0.62;2.00;1.70;;;19.60;21.00;;;;;;2267763;61;20363;-67
2022/12/19 07:22:06;0.00;0.00;0.62;0.00;0.00;0.62;2.43;2.10;;;19.60;21.00;;;;;;2268533;61;20444;-66
2022/12/19 07:24:50;0.00;0.00;0.62;0.00;0.00;0.62;2.40;1.50;;;19.60;21.00;;;;;;2267789;61;20452;-65
2022/12/19 07:27:35;0.00;0.00;0.62;0.00;0.00;0.62;2.80;1.97;;;19.60;21.00;;;;;;2268627;61;20346;-67
2022/12/19 07:30:21;0.00;0.00;0.62;0.00;0.00;0.62;2.17;1.60;;;19.60;21.00;;;;;;2268251;61;20359;-67
2022/12/19 07:33:07;0.00;0.00;0.62;0.00;0.00;0.62;2.20;1.83;;;19.60;21.00;;;;;;2267367;61;20367;-67
2022/12/19 07:35:52;0.00;0.00;0.62;0.00;0.00;0.62;2.23;1.73;;;19.60;21.00;;;;;;2268409;61;20425;-65
2022/12/19 07:38:36;0.00;0.00;0.62;0.00;0.00;0.62;3.23;1.90;;;19.60;21.00;;;;;;2268244;61;20363;-67
2022/12/19 07:41:21;0.00;0.00;0.62;0.00;0.00;0.62;2.20;1.90;;;19.60;21.00;;;;;;2267798;61;20990;-67
2022/12/19 07:44:06;0.00;0.00;0.62;0.00;0.00;0.62;2.30;1.73;;;19.60;21.00;;;;;;2268358;61;20430;-64
2022/12/19 07:46:51;0.00;0.00;0.62;0.00;0.00;0.62;6.73;5.30;;;19.60;21.00;;;;;;2267734;61;20478;-65
2022/12/19 07:49:37;0.00;0.00;0.62;0.00;0.00;0.62;8.13;7.07;;;19.60;20.70;;;;;;2268432;61;20359;-66
2022/12/19 07:52:22;0.00;0.00;0.62;0.00;0.00;0.62;10.17;8.87;;;19.50;20.30;;;;;;2268266;61;20363;-66
2022/12/19 07:55:07;0.00;0.00;0.62;0.00;0.00;0.62;11.70;9.00;;;19.40;20.00;;;;;;2267379;61;20433;-65
2022/12/19 07:57:52;0.00;0.00;0.62;0.00;0.00;0.62;13.13;8.80;;;19.20;19.90;;;;;;2268498;61;20359;-65
2022/12/19 08:00:37;0.00;0.00;0.62;0.00;0.00;0.62;12.53;10.07;;;19.00;19.80;;;;;;2268465;61;20887;-67
2022/12/19 08:03:22;0.00;0.00;0.62;0.00;0.00;0.62;11.00;9.90;;;18.90;20.00;;;;;;2267440;61;20540;-66
2022/12/19 08:06:09;0.00;0.00;0.62;0.00;0.00;0.62;9.50;8.13;;;18.70;20.00;;;;;;2265224;61;20355;-66
2022/12/19 08:08:53;0.00;0.00;0.62;0.00;0.00;0.62;10.20;9.20;;;18.50;20.20;;;;;;2267877;61;20413;-65
2022/12/19 08:11:38;0.00;0.00;0.62;0.00;0.00;0.62;10.60;8.80;;;18.40;20.60;;;;;;2268055;61;20455;-66
2022/12/19 08:14:23;0.00;0.00;0.62;0.00;0.00;0.62;12.50;8.20;;;18.30;20.80;;;;;;2268271;61;20395;-65
2022/12/19 08:17:08;0.00;0.00;0.62;0.00;0.00;0.62;9.67;8.70;;;18.20;21.20;;;;;;2267435;61;21039;-66
2022/12/19 08:19:53;0.00;0.00;0.62;0.00;0.00;0.62;10.50;9.13;;;18.20;21.20;;;;;;2268261;61;20363;-62
2022/12/19 08:22:39;0.00;0.00;0.62;0.00;0.00;0.62;9.00;7.80;;;18.10;21.20;;;;;;2268406;61;20359;-64
2022/12/19 08:25:23;0.00;0.00;0.62;0.00;0.00;0.62;9.17;7.97;;;18.10;21.30;;;;;;2267279;61;20383;-65
2022/12/19 08:28:08;0.00;0.00;0.62;0.00;0.00;0.62;9.30;8.07;;;18.00;21.30;;;;;;2267250;61;20429;-64
2022/12/19 08:30:52;0.00;0.00;0.62;0.00;0.00;0.62;10.50;8.73;;;18.00;21.40;;;;;;2267842;61;20879;-66
2022/12/19 08:33:37;0.00;0.00;0.62;0.00;0.00;0.62;10.57;8.53;;;18.00;21.40;;;;;;2267312;61;20395;-67
2022/12/19 08:36:23;0.00;0.00;0.62;0.00;0.00;0.62;9.23;8.23;;;17.90;21.40;;;;;;2305797;57;20938;-66
2022/12/19 08:39:10;0.00;0.00;0.62;0.00;0.00;0.62;9.70;8.33;;;17.90;21.50;;;;;;2267392;61;20402;-66
2022/12/19 08:41:55;0.00;0.00;0.62;0.00;0.00;0.62;10.00;8.13;;;17.80;21.60;;;;;;2267933;61;20368;-66
2022/12/19 08:44:39;0.00;0.00;0.62;0.00;0.00;0.62;8.00;7.20;;;17.80;21.70;;;;;;2268130;61;20403;-67
2022/12/19 08:47:24;0.00;0.00;0.62;0.00;0.00;0.62;8.67;7.77;;;17.80;21.80;;;;;;2267321;61;20354;-65
2022/12/19 08:50:09;0.00;0.00;0.62;0.00;0.00;0.62;9.50;8.50;;;17.80;21.80;;;;;;2268496;61;20891;-65
2022/12/19 08:52:53;0.00;0.00;0.62;0.00;0.00;0.62;10.27;7.67;;;17.70;21.80;;;;;;2267791;61;20418;-63
2022/12/19 08:55:39;0.00;0.00;0.62;0.00;0.00;0.62;11.50;8.50;;;17.70;21.90;;;;;;2267828;61;20868;-63
2022/12/19 08:58:27;0.00;0.00;0.62;0.00;0.00;0.62;11.00;7.33;;;17.70;22.00;;;;;;2268414;61;20929;-64
2022/12/19 09:01:14;0.00;0.00;0.62;0.00;0.00;0.62;9.90;8.40;;;17.70;22.10;;;;;;2267537;61;20448;-69
2022/12/19 09:03:59;0.00;0.00;0.62;0.00;0.00;0.62;9.40;7.97;;;17.60;22.10;;;;;;2267942;61;20413;-63
2022/12/19 09:06:44;0.00;0.00;0.62;0.00;0.00;0.62;9.10;7.70;;;17.60;22.10;;;;;;2265234;61;20391;-65
2022/12/19 09:09:29;0.00;0.00;0.62;0.00;0.00;0.62;8.13;7.30;;;17.60;22.20;;;;;;2267054;61;21001;-68
2022/12/19 09:12:15;0.00;0.00;0.62;0.00;0.00;0.62;8.73;7.60;;;17.60;22.20;;;;;;2268166;61;20812;-69
2022/12/19 09:15:00;0.00;0.00;0.62;0.00;0.00;0.62;7.53;6.53;;;17.50;22.20;;;;;;2267900;61;20904;-67
2022/12/19 09:17:44;0.00;0.00;0.62;0.00;0.00;0.62;6.80;6.10;;;17.50;22.10;;;;;;2267610;61;20760;-67
2022/12/19 09:20:29;0.00;0.00;0.62;0.00;0.00;0.62;5.90;5.03;;;17.50;22.10;;;;;;2267758;61;20363;-65
2022/12/19 09:23:13;0.00;0.00;0.62;0.00;0.00;0.62;5.23;4.57;;;17.60;22.20;;;;;;2267667;61;20390;-64
2022/12/19 09:26:02;0.00;0.00;0.62;0.00;0.00;0.62;4.30;3.90;;;17.60;22.70;;;;;;2268257;61;20390;-61
2022/12/19 09:28:49;0.00;0.00;0.62;0.00;0.00;0.62;4.80;3.73;;;17.60;22.10;;;;;;2268323;61;20489;-66
2022/12/19 09:31:34;0.00;0.00;0.62;0.00;0.00;0.62;5.83;4.03;;;17.70;22.20;;;;;;2267345;61;20378;-62
2022/12/19 09:34:19;0.00;0.00;0.62;0.00;0.00;0.62;4.10;3.70;;;17.70;22.10;;;;;;2268187;61;20391;-64
2022/12/19 09:37:05;0.00;0.00;0.62;0.00;0.00;0.62;4.30;3.60;;;17.70;22.10;;;;;;2268171;61;20767;-62
2022/12/19 09:39:49;0.00;0.00;0.62;0.00;0.00;0.62;4.57;3.27;;;17.80;22.10;;;;;;2267750;61;20375;-64
2022/12/19 09:43:00;0.00;0.00;0.62;0.00;0.00;0.62;4.10;3.07;;;17.80;22.10;;;;;;2268243;61;20826;-65
2022/12/19 09:45:56;0.00;0.00;0.62;0.00;0.00;0.62;3.73;3.00;;;17.80;22.00;;;;;;2267118;61;20401;-66
2022/12/19 09:48:41;0.00;0.00;0.62;0.00;0.00;0.62;3.97;3.47;;;17.90;22.10;;;;;;2268272;61;20366;-67
2022/12/19 09:51:35;0.00;0.00;0.62;0.00;0.00;0.62;5.50;3.73;;;17.90;22.10;;;;;;2268040;61;20359;-66
2022/12/19 09:54:26;0.00;0.00;0.62;0.00;0.00;0.62;4.77;3.57;;;18.00;22.20;;;;;;2667625;45;20892;-67
2022/12/19 09:57:16;0.00;0.00;0.62;0.00;0.00;0.62;3.73;3.07;;;18.00;22.20;;;;;;2261875;61;20435;-65
2022/12/19 10:00:10;0.00;0.00;0.62;0.00;0.00;0.62;3.47;2.67;;;18.10;22.20;;;;;;2260947;61;20363;-63
2022/12/19 10:03:03;0.00;0.00;0.62;0.00;0.00;0.62;4.33;3.53;;;18.10;22.20;;;;;;2264663;61;20356;-66
2022/12/19 10:05:52;0.00;0.00;0.62;0.00;0.00;0.62;3.60;2.90;;;18.10;22.30;;;;;;2264800;61;20380;-65
2022/12/19 10:08:39;0.00;0.00;0.62;0.00;0.00;0.62;2.83;2.43;;;18.10;22.20;;;;;;2263952;61;20364;-64
2022/12/19 10:11:49;0.00;0.00;0.62;0.00;0.00;0.62;4.33;2.80;;;18.20;22.30;;;;;;2264690;61;20411;-65
2022/12/19 10:14:53;0.00;0.00;0.62;0.00;0.00;0.62;4.43;3.30;;;18.20;22.30;;;;;;2261214;61;20472;-67
2022/12/19 10:18:04;0.00;0.00;0.62;0.00;0.00;0.62;3.27;2.67;;;18.20;22.30;;;;;;2264802;61;20771;-65
2022/12/19 10:20:55;0.00;0.00;0.62;0.00;0.00;0.62;3.50;2.50;;;18.30;22.30;;;;;;2264784;61;20507;-64
2022/12/19 10:24:01;0.00;0.00;0.62;0.00;0.00;0.62;4.03;3.07;;;18.30;22.20;;;;;;2263128;61;20384;-66
2022/12/19 10:26:51;0.00;0.00;0.62;0.00;0.00;0.62;3.57;2.67;;;18.30;22.30;;;;;;2264783;61;20391;-72
2022/12/19 10:30:09;0.00;0.00;0.62;0.00;0.00;0.62;3.30;2.30;;;18.40;22.40;;;;;;2263884;61;20470;-67
2022/12/19 10:33:05;0.00;0.00;0.62;0.00;0.00;0.62;3.83;2.77;;;18.40;22.40;;;;;;2264563;61;20363;-65
2022/12/19 10:35:57;0.00;0.00;0.62;0.00;0.00;0.62;3.00;2.70;;;18.40;22.40;;;;;;2264451;61;20439;-69
2022/12/19 10:38:53;0.00;0.00;0.62;0.00;0.00;0.62;3.80;2.73;;;18.50;22.40;;;;;;2264033;61;20879;-63
2022/12/19 10:41:43;0.00;0.00;0.62;0.00;0.00;0.62;3.37;2.60;;;18.50;22.40;;;;;;2264769;61;20364;-66
2022/12/19 10:44:30;0.00;0.00;0.62;0.00;0.00;0.62;3.03;2.40;;;18.50;22.40;;;;;;2263857;61;20928;-65
2022/12/19 10:47:16;0.00;0.00;0.62;0.00;0.00;0.62;2.87;2.60;;;18.50;22.40;;;;;;2264664;61;20383;-70
2022/12/19 10:50:03;0.00;0.00;0.62;0.00;0.00;0.62;2.73;2.23;;;18.60;22.50;;;;;;2264565;61;20412;-66
2022/12/19 10:52:52;0.00;0.00;0.62;0.00;0.00;0.62;2.80;2.43;;;18.60;22.40;;;;;;2263453;61;20952;-66
2022/12/19 10:55:43;0.00;0.00;0.62;0.00;0.00;0.62;3.00;2.50;;;18.60;22.50;;;;;;2264774;61;20359;-63
2022/12/19 10:58:33;0.00;0.00;0.62;0.00;0.00;0.62;3.47;2.17;;;18.60;22.40;;;;;;2264225;61;20407;-64
2022/12/19 11:01:25;0.00;0.00;0.62;0.00;0.00;0.62;3.07;2.30;;;18.70;22.50;;;;;;2265087;61;20425;-66
2022/12/19 11:04:28;0.00;0.00;0.62;0.00;0.00;0.62;3.40;2.20;;;18.70;22.50;;;;;;2268762;61;20425;-69
2022/12/19 11:07:21;0.00;0.00;0.62;0.00;0.00;0.62;2.33;2.00;;;18.70;22.40;;;;;;2267981;61;20386;-65
2022/12/19 11:10:35;0.00;0.00;0.62;0.00;0.00;0.62;2.63;2.13;;;18.80;22.60;;;;;;2268356;61;20880;-65